createdAt,value
2022-11-15T00:01:26.117Z,88.91
2022-11-15T00:04:17.271Z,89.03
2022-11-15T00:07:08.434Z,89.14
2022-11-15T00:09:59.631Z,89.22
2022-11-15T00:12:50.765Z,89.22
2022-11-15T00:15:43.577Z,89.23
2022-11-15T00:18:34.905Z,89.34
2022-11-15T00:21:26.148Z,89.48
2022-11-15T00:24:17.382Z,89.59
2022-11-15T00:27:08.311Z,89.66
2022-11-15T00:29:59.001Z,89.70
2022-11-15T00:32:50.082Z,89.73
2022-11-15T00:35:40.792Z,89.89
2022-11-15T00:38:39.498Z,89.81
2022-11-15T00:41:30.458Z,89.78
2022-11-15T00:44:21.422Z,89.74
2022-11-15T00:47:12.569Z,89.60
2022-11-15T00:50:03.136Z,89.55
2022-11-15T00:52:53.890Z,89.46
2022-11-15T00:55:44.718Z,89.46
2022-11-15T00:58:35.992Z,89.55
2022-11-15T01:01:26.894Z,89.84
2022-11-15T01:04:17.883Z,89.72
2022-11-15T01:07:08.809Z,89.73
2022-11-15T01:09:59.905Z,89.79
2022-11-15T01:12:51.877Z,90.04
2022-11-15T01:15:44.307Z,90.05
2022-11-15T01:18:35.508Z,89.95
2022-11-15T01:21:26.880Z,89.85
2022-11-15T01:24:18.333Z,90.07
2022-11-15T01:27:10.509Z,90.28
2022-11-15T01:30:01.724Z,90.11
2022-11-15T01:32:53.686Z,90.15
2022-11-15T01:35:44.638Z,89.93
2022-11-15T01:38:35.483Z,89.85
2022-11-15T01:41:30.233Z,89.98
2022-11-15T01:44:48.835Z,90.19
2022-11-15T01:47:43.241Z,90.16
2022-11-15T01:50:36.058Z,89.80
2022-11-15T01:53:28.430Z,89.66
2022-11-15T01:56:26.028Z,89.81
2022-11-15T01:59:17.399Z,89.76
2022-11-15T02:02:09.157Z,89.73
2022-11-15T02:05:00.240Z,89.56
2022-11-15T02:07:52.362Z,89.47
2022-11-15T02:10:43.327Z,89.36
2022-11-15T02:13:34.605Z,89.43
2022-11-15T02:16:50.625Z,89.53
2022-11-15T02:19:59.071Z,89.50
2022-11-15T02:23:14.798Z,89.50
2022-11-15T02:26:35.679Z,89.57
2022-11-15T02:29:49.019Z,89.70
2022-11-15T02:32:49.962Z,89.87
2022-11-15T02:36:00.396Z,89.79
2022-11-15T02:39:07.674Z,89.49
2022-11-15T02:42:08.198Z,89.37
2022-11-15T02:45:00.675Z,89.31
2022-11-15T02:47:54.197Z,89.34
2022-11-15T02:50:46.358Z,89.33
2022-11-15T02:53:37.284Z,89.27
2022-11-15T02:56:28.413Z,89.23
2022-11-15T03:00:01.216Z,89.44
2022-11-15T03:03:34.454Z,89.21
2022-11-15T03:06:44.944Z,88.96
2022-11-15T03:09:46.331Z,88.99
2022-11-15T03:12:48.049Z,89.20
2022-11-15T03:15:43.007Z,89.19
2022-11-15T03:18:46.282Z,88.99
2022-11-15T03:21:38.521Z,88.75
2022-11-15T03:24:31.192Z,88.76
2022-11-15T03:27:25.492Z,88.82
2022-11-15T03:30:17.499Z,88.79
2022-11-15T03:33:09.044Z,88.82
2022-11-15T03:35:59.920Z,88.93
2022-11-15T03:38:51.906Z,88.83
2022-11-15T03:41:57.404Z,88.99
2022-11-15T03:45:14.545Z,89.28
2022-11-15T03:48:19.065Z,89.32
2022-11-15T03:51:09.938Z,89.13
2022-11-15T03:54:01.736Z,88.91
2022-11-15T03:56:53.115Z,88.70
2022-11-15T03:59:43.969Z,88.72
2022-11-15T04:02:34.910Z,88.86
2022-11-15T04:05:25.886Z,89.01
2022-11-15T04:08:18.349Z,88.96
2022-11-15T04:11:09.822Z,88.93
2022-11-15T04:14:00.755Z,88.92
2022-11-15T04:16:52.235Z,88.84
2022-11-15T04:20:02.156Z,88.86
2022-11-15T04:23:16.250Z,89.03
2022-11-15T04:26:14.136Z,89.25
2022-11-15T04:29:23.100Z,89.16
2022-11-15T04:32:14.099Z,89.33
2022-11-15T04:35:04.978Z,89.42
2022-11-15T04:37:56.053Z,89.26
2022-11-15T04:40:46.696Z,89.14
2022-11-15T04:43:38.578Z,89.12
2022-11-15T04:46:30.096Z,89.01
2022-11-15T04:49:21.400Z,89.04
2022-11-15T04:52:11.843Z,89.16
2022-11-15T04:55:07.881Z,89.22
2022-11-15T04:58:05.849Z,89.36
2022-11-15T05:00:57.189Z,89.54
2022-11-15T05:04:07.332Z,89.61
2022-11-15T05:06:58.274Z,89.54
2022-11-15T05:09:50.211Z,89.59
2022-11-15T05:12:41.262Z,89.72
2022-11-15T05:15:32.881Z,89.80
2022-11-15T05:18:24.064Z,89.78
2022-11-15T05:21:17.842Z,89.62
2022-11-15T05:24:09.099Z,89.70
2022-11-15T05:27:00.590Z,89.80
2022-11-15T05:29:52.380Z,89.75
2022-11-15T05:32:43.405Z,89.68
2022-11-15T05:35:44.786Z,89.56
2022-11-15T05:38:36.071Z,89.46
2022-11-15T05:41:37.670Z,89.36
2022-11-15T05:44:28.717Z,89.06
2022-11-15T05:47:25.655Z,88.91
2022-11-15T05:50:18.694Z,88.72
2022-11-15T05:53:09.744Z,88.57
2022-11-15T05:56:00.960Z,88.53
2022-11-15T05:58:56.763Z,88.34
2022-11-15T06:01:45.611Z,88.10
2022-11-15T06:04:36.996Z,87.92
2022-11-15T06:07:27.971Z,87.73
2022-11-15T06:10:19.062Z,87.54
2022-11-15T06:13:10.873Z,87.41
2022-11-15T06:16:02.122Z,87.48
2022-11-15T06:18:53.835Z,87.54
2022-11-15T06:21:45.736Z,87.41
2022-11-15T06:24:36.285Z,87.31
2022-11-15T06:27:27.018Z,87.09
2022-11-15T06:30:17.979Z,87.10
2022-11-15T06:33:10.261Z,87.42
2022-11-15T06:36:07.086Z,87.46
2022-11-15T06:38:57.428Z,87.54
2022-11-15T06:41:47.793Z,87.58
2022-11-15T06:44:39.793Z,87.63
2022-11-15T06:47:30.733Z,87.80
2022-11-15T06:50:21.519Z,87.86
2022-11-15T06:53:12.234Z,87.59
2022-11-15T06:56:06.228Z,87.73
2022-11-15T06:58:58.067Z,87.79
2022-11-15T07:01:48.880Z,87.51
2022-11-15T07:04:40.200Z,87.68
2022-11-15T07:07:31.507Z,87.72
2022-11-15T07:10:25.830Z,87.62
2022-11-15T07:13:17.486Z,87.36
2022-11-15T07:16:11.792Z,87.12
2022-11-15T07:19:03.537Z,86.92
2022-11-15T07:21:54.309Z,86.41
2022-11-15T07:24:45.615Z,85.82
2022-11-15T07:27:36.327Z,85.56
2022-11-15T07:30:28.206Z,85.47
2022-11-15T07:33:19.184Z,85.00
2022-11-15T07:36:11.428Z,84.45
2022-11-15T07:39:02.301Z,84.24
2022-11-15T07:41:55.116Z,83.99
2022-11-15T07:44:46.637Z,83.74
2022-11-15T07:47:38.300Z,83.63
2022-11-15T07:50:32.279Z,82.83
2022-11-15T07:53:23.195Z,81.53
2022-11-15T07:56:15.007Z,81.07
2022-11-15T07:59:06.241Z,80.62
2022-11-15T08:01:57.584Z,80.25
2022-11-15T08:04:50.411Z,80.25
2022-11-15T08:07:41.678Z,80.02
2022-11-15T08:10:37.734Z,79.50
2022-11-15T08:13:25.216Z,79.22
2022-11-15T08:16:16.635Z,78.88
2022-11-15T08:19:07.559Z,77.92
2022-11-15T08:21:58.246Z,77.34
2022-11-15T08:24:49.409Z,76.94
2022-11-15T08:27:41.803Z,76.29
2022-11-15T08:30:39.530Z,76.18
2022-11-15T08:33:31.425Z,75.91
2022-11-15T08:36:24.755Z,75.39
2022-11-15T08:39:15.974Z,75.37
2022-11-15T08:42:06.636Z,75.00
2022-11-15T08:44:57.632Z,74.76
2022-11-15T08:47:53.936Z,74.62
2022-11-15T08:50:42.165Z,74.30
2022-11-15T08:53:33.198Z,74.07
2022-11-15T08:56:25.133Z,73.88
2022-11-15T08:59:16.002Z,73.64
2022-11-15T09:02:07.448Z,73.08
2022-11-15T09:04:59.436Z,73.33
2022-11-15T09:07:52.306Z,73.20
2022-11-15T09:10:43.176Z,73.05
2022-11-15T09:13:33.995Z,72.83
2022-11-15T09:16:24.853Z,72.76
2022-11-15T09:19:16.732Z,72.27
2022-11-15T09:22:09.598Z,72.04
2022-11-15T09:25:00.030Z,71.30
2022-11-15T09:27:51.295Z,71.26
2022-11-15T09:30:42.198Z,71.49
2022-11-15T09:33:34.790Z,72.01
2022-11-15T09:36:29.777Z,71.63
2022-11-15T09:39:21.046Z,71.43
2022-11-15T09:42:40.333Z,70.95
2022-11-15T09:46:02.226Z,70.69
2022-11-15T09:48:55.362Z,69.53
2022-11-15T09:51:48.207Z,69.64
2022-11-15T09:54:53.249Z,69.92
2022-11-15T09:57:22.114Z,70.13
2022-11-15T10:00:45.930Z,69.58
2022-11-15T10:02:55.379Z,69.53
2022-11-15T10:05:30.412Z,69.71
2022-11-15T10:08:29.526Z,69.92
2022-11-15T10:13:50.589Z,69.46
2022-11-15T10:17:01.510Z,69.57
2022-11-15T10:19:42.268Z,69.11
2022-11-15T10:22:59.290Z,68.98
2022-11-15T10:25:35.265Z,69.16
2022-11-15T10:28:32.655Z,68.88
2022-11-15T10:31:13.047Z,68.84
2022-11-15T10:33:45.238Z,68.93
2022-11-15T10:36:26.946Z,68.79
2022-11-15T10:39:00.725Z,68.64
2022-11-15T10:41:38.141Z,68.66
2022-11-15T10:44:29.585Z,68.47
2022-11-15T10:47:11.092Z,68.14
2022-11-15T10:49:48.656Z,68.28
2022-11-15T10:52:23.600Z,68.39
2022-11-15T10:55:04.029Z,68.35
2022-11-15T10:57:40.015Z,68.20
2022-11-15T11:00:25.295Z,68.24
2022-11-15T11:03:11.378Z,68.16
2022-11-15T11:05:44.976Z,68.91
2022-11-15T11:08:25.216Z,69.03
2022-11-15T11:11:04.013Z,69.18
2022-11-15T11:13:40.632Z,68.36
2022-11-15T11:16:42.367Z,67.76
2022-11-15T11:19:34.801Z,67.73
2022-11-15T11:22:45.933Z,67.95
2022-11-15T11:25:33.237Z,67.94
2022-11-15T11:28:52.707Z,68.01
2022-11-15T11:31:55.018Z,67.92
2022-11-15T11:34:56.206Z,67.33
2022-11-15T11:37:54.811Z,67.32
2022-11-15T11:40:46.657Z,67.25
2022-11-15T11:43:54.614Z,67.26
2022-11-15T11:46:55.605Z,67.23
2022-11-15T11:49:55.069Z,67.04
2022-11-15T11:52:32.658Z,66.66
2022-11-15T11:55:33.833Z,66.40
2022-11-15T11:58:17.374Z,66.02
2022-11-15T12:01:00.628Z,65.83
2022-11-15T12:03:44.354Z,65.62
2022-11-15T12:06:46.773Z,65.66
2022-11-15T12:09:36.843Z,65.47
2022-11-15T12:12:38.987Z,65.40
2022-11-15T12:15:18.498Z,65.66
2022-11-15T12:17:51.921Z,65.59
2022-11-15T12:20:36.804Z,65.74
2022-11-15T12:23:23.273Z,65.66
2022-11-15T12:26:04.984Z,65.58
2022-11-15T12:29:10.277Z,65.63
2022-11-15T12:31:45.262Z,65.50
2022-11-15T12:34:44.396Z,65.28
2022-11-15T12:37:41.845Z,65.02
2022-11-15T12:40:34.912Z,64.85
2022-11-15T12:43:21.654Z,65.01
2022-11-15T12:45:55.676Z,65.12
2022-11-15T12:48:39.239Z,65.10
2022-11-15T12:51:12.595Z,64.81
2022-11-15T12:53:46.520Z,64.78
2022-11-15T12:56:22.579Z,64.78
2022-11-15T12:59:00.339Z,64.70
2022-11-15T13:01:43.909Z,64.66
2022-11-15T13:04:28.910Z,64.76
2022-11-15T13:07:08.878Z,64.90
2022-11-15T13:09:47.069Z,64.89
2022-11-15T13:12:36.334Z,64.97
2022-11-15T13:15:23.289Z,65.04
2022-11-15T13:17:58.744Z,65.22
2022-11-15T13:20:35.485Z,65.37
2022-11-15T13:23:16.749Z,65.50
2022-11-15T13:26:11.627Z,65.78
2022-11-15T13:28:55.057Z,65.95
2022-11-15T13:31:39.940Z,66.33
2022-11-15T13:34:50.540Z,66.42
2022-11-15T13:37:02.414Z,66.59
2022-11-15T13:39:38.652Z,66.81
2022-11-15T13:42:18.147Z,67.16
2022-11-15T13:45:03.462Z,67.27
2022-11-15T13:47:36.799Z,67.46
2022-11-15T13:50:14.711Z,67.76
2022-11-15T13:52:50.375Z,68.11
2022-11-15T13:55:25.399Z,68.44
2022-11-15T13:58:01.258Z,68.78
2022-11-15T14:00:44.524Z,68.90
2022-11-15T14:03:27.018Z,69.02
2022-11-15T14:06:21.898Z,69.09
2022-11-15T14:09:14.942Z,69.11
2022-11-15T14:11:56.652Z,69.12
2022-11-15T14:14:32.046Z,69.11
2022-11-15T14:17:04.836Z,69.17
2022-11-15T14:19:40.876Z,69.36
2022-11-15T14:22:23.641Z,69.64
2022-11-15T14:25:23.238Z,69.67
2022-11-15T14:28:29.268Z,69.87
2022-11-15T14:31:03.658Z,70.05
2022-11-15T14:33:41.361Z,70.40
2022-11-15T14:36:21.860Z,70.53
2022-11-15T14:38:55.522Z,70.81
2022-11-15T14:41:30.937Z,71.14
2022-11-15T14:44:04.878Z,71.32
2022-11-15T14:46:37.710Z,71.65
2022-11-15T14:49:10.793Z,71.88
2022-11-15T14:51:44.045Z,72.08
2022-11-15T14:54:17.327Z,72.27
2022-11-15T14:56:50.336Z,72.37
2022-11-15T14:59:23.563Z,72.30
2022-11-15T15:01:56.857Z,72.42
2022-11-15T15:04:29.742Z,72.21
2022-11-15T15:07:03.001Z,72.29
2022-11-15T15:09:35.868Z,72.38
2022-11-15T15:12:14.280Z,72.58
2022-11-15T15:14:48.779Z,72.73
2022-11-15T15:17:21.743Z,72.81
2022-11-15T15:19:54.657Z,73.04
2022-11-15T15:22:29.120Z,73.19
2022-11-15T15:25:02.276Z,73.32
2022-11-15T15:27:35.588Z,73.67
2022-11-15T15:30:10.570Z,73.95
2022-11-15T15:32:43.658Z,74.16
2022-11-15T15:35:18.555Z,74.24
2022-11-15T15:37:52.671Z,74.43
2022-11-15T15:40:25.625Z,74.55
2022-11-15T15:42:58.484Z,74.81
2022-11-15T15:45:31.370Z,75.01
2022-11-15T15:48:04.411Z,75.03
2022-11-15T15:50:37.981Z,75.16
2022-11-15T15:53:11.767Z,75.40
2022-11-15T15:55:45.452Z,75.54
2022-11-15T15:58:18.204Z,75.66
2022-11-15T16:00:51.171Z,75.91
2022-11-15T16:03:24.960Z,76.27
2022-11-15T16:05:59.470Z,76.54
2022-11-15T16:08:47.495Z,76.58
2022-11-15T16:11:09.352Z,76.79
2022-11-15T16:13:42.225Z,77.04
2022-11-15T16:16:16.745Z,77.23
2022-11-15T16:18:49.834Z,77.40
2022-11-15T16:21:23.308Z,77.72
2022-11-15T16:23:56.541Z,77.99
2022-11-15T16:26:45.425Z,78.35
2022-11-15T16:29:19.110Z,78.67
2022-11-15T16:31:52.098Z,79.02
2022-11-15T16:34:30.028Z,79.48
2022-11-15T16:37:00.211Z,80.01
2022-11-15T16:39:34.310Z,80.45
2022-11-15T16:42:08.032Z,80.84
2022-11-15T16:44:41.259Z,81.08
2022-11-15T16:47:22.972Z,81.20
2022-11-15T16:49:56.252Z,81.47
2022-11-15T16:52:29.305Z,81.59
2022-11-15T16:55:02.925Z,81.85
2022-11-15T16:57:36.622Z,82.36
2022-11-15T17:00:15.451Z,82.50
2022-11-15T17:02:51.099Z,82.62
2022-11-15T17:05:27.337Z,82.71
2022-11-15T17:08:00.564Z,83.05
2022-11-15T17:10:33.808Z,83.43
2022-11-15T17:13:06.744Z,83.73
2022-11-15T17:15:39.780Z,83.99
2022-11-15T17:18:15.723Z,84.17
2022-11-15T17:20:48.892Z,84.32
2022-11-15T17:23:22.658Z,84.47
2022-11-15T17:26:23.917Z,84.63
2022-11-15T17:28:40.490Z,84.86
2022-11-15T17:31:15.462Z,85.14
2022-11-15T17:33:48.474Z,85.28
2022-11-15T17:36:21.374Z,85.62
2022-11-15T17:38:59.315Z,85.74
2022-11-15T17:41:29.872Z,85.76
2022-11-15T17:44:03.924Z,85.75
2022-11-15T17:46:37.439Z,86.02
2022-11-15T17:49:10.327Z,86.24
2022-11-15T17:51:46.167Z,86.48
2022-11-15T17:54:17.869Z,86.79
2022-11-15T17:56:51.866Z,86.86
2022-11-15T17:59:25.176Z,86.94
2022-11-15T18:01:58.480Z,86.94
2022-11-15T18:04:31.835Z,87.15
2022-11-15T18:07:04.967Z,87.22
2022-11-15T18:09:40.360Z,87.28
2022-11-15T18:12:14.524Z,87.14
2022-11-15T18:14:47.551Z,87.24
2022-11-15T18:17:21.157Z,87.30
2022-11-15T18:19:54.192Z,87.26
2022-11-15T18:22:27.734Z,87.32
2022-11-15T18:25:00.902Z,87.46
2022-11-15T18:27:34.378Z,87.43
2022-11-15T18:30:09.323Z,87.44
2022-11-15T18:32:43.328Z,87.34
2022-11-15T18:35:16.628Z,87.52
2022-11-15T18:37:49.932Z,87.33
2022-11-15T18:40:22.921Z,87.19
2022-11-15T18:42:56.304Z,87.19
2022-11-15T18:45:29.389Z,87.39
2022-11-15T18:48:02.312Z,87.58
2022-11-15T18:50:36.860Z,87.49
2022-11-15T18:53:10.455Z,87.40
2022-11-15T18:55:43.798Z,87.43
2022-11-15T18:58:16.773Z,87.40
2022-11-15T19:00:50.879Z,87.29
2022-11-15T19:03:24.786Z,87.37
2022-11-15T19:06:17.096Z,87.22
2022-11-15T19:08:53.371Z,87.38
2022-11-15T19:11:31.303Z,87.53
2022-11-15T19:14:08.564Z,87.77
2022-11-15T19:16:45.348Z,87.84
2022-11-15T19:19:28.010Z,87.93
2022-11-15T19:22:02.268Z,88.09
2022-11-15T19:24:51.690Z,88.11
2022-11-15T19:27:24.700Z,88.09
2022-11-15T19:29:57.597Z,88.12
2022-11-15T19:32:30.950Z,88.09
2022-11-15T19:35:05.074Z,88.09
2022-11-15T19:37:39.121Z,88.04
2022-11-15T19:40:13.698Z,87.93
2022-11-15T19:42:47.480Z,87.91
2022-11-15T19:45:20.318Z,87.86
2022-11-15T19:47:53.380Z,87.75
2022-11-15T19:50:26.451Z,87.64
2022-11-15T19:53:00.730Z,87.68
2022-11-15T19:55:32.843Z,87.74
2022-11-15T19:58:05.496Z,88.00
2022-11-15T20:00:39.083Z,88.08
2022-11-15T20:03:12.051Z,87.95
2022-11-15T20:05:45.308Z,87.90
2022-11-15T20:08:18.659Z,87.91
2022-11-15T20:10:51.477Z,87.93
2022-11-15T20:13:24.735Z,87.93
2022-11-15T20:15:57.923Z,87.94
2022-11-15T20:18:32.064Z,87.96
2022-11-15T20:21:06.613Z,87.90
2022-11-15T20:23:39.853Z,87.87
2022-11-15T20:26:13.333Z,87.82
2022-11-15T20:28:48.432Z,87.81
2022-11-15T20:31:22.088Z,87.85
2022-11-15T20:33:55.310Z,87.82
2022-11-15T20:36:28.594Z,87.88
2022-11-15T20:39:02.253Z,87.89
2022-11-15T20:41:35.314Z,87.96
2022-11-15T20:44:07.980Z,88.06
2022-11-15T20:46:41.070Z,88.18
2022-11-15T20:49:14.290Z,88.17
2022-11-15T20:51:48.238Z,88.17
2022-11-15T20:54:21.304Z,88.30
2022-11-15T20:56:55.404Z,88.31
2022-11-15T20:59:28.428Z,88.28
2022-11-15T21:02:18.546Z,88.35
2022-11-15T21:04:51.049Z,88.36
2022-11-15T21:07:24.715Z,88.40
2022-11-15T21:10:15.226Z,88.47
2022-11-15T21:12:48.443Z,88.51
2022-11-15T21:15:21.441Z,88.51
2022-11-15T21:17:55.014Z,88.64
2022-11-15T21:20:28.343Z,88.65
2022-11-15T21:23:01.753Z,88.55
2022-11-15T21:25:35.860Z,88.60
2022-11-15T21:28:08.699Z,88.55
2022-11-15T21:30:41.755Z,88.65
2022-11-15T21:33:15.697Z,88.71
2022-11-15T21:35:48.708Z,88.78
2022-11-15T21:38:23.991Z,88.71
2022-11-15T21:40:57.466Z,88.58
2022-11-15T21:43:30.433Z,88.52
2022-11-15T21:46:07.437Z,88.54
2022-11-15T21:48:40.875Z,88.59
2022-11-15T21:51:14.237Z,88.42
2022-11-15T21:53:47.240Z,88.25
2022-11-15T21:56:20.635Z,88.23
2022-11-15T21:58:54.797Z,88.13
2022-11-15T22:01:47.129Z,88.08
2022-11-15T22:04:21.963Z,88.24
2022-11-15T22:06:55.293Z,88.23
2022-11-15T22:09:28.415Z,88.09
2022-11-15T22:12:01.601Z,88.21
2022-11-15T22:14:36.052Z,88.39
2022-11-15T22:17:15.354Z,88.50
2022-11-15T22:19:52.883Z,88.47
2022-11-15T22:22:23.200Z,88.53
2022-11-15T22:24:57.798Z,88.57
2022-11-15T22:27:32.526Z,88.64
2022-11-15T22:30:06.655Z,88.73
2022-11-15T22:32:40.654Z,88.78
2022-11-15T22:35:14.138Z,88.70
2022-11-15T22:37:47.322Z,88.74
2022-11-15T22:40:20.774Z,88.78
2022-11-15T22:42:54.163Z,88.80
2022-11-15T22:45:27.455Z,88.84
2022-11-15T22:48:00.833Z,88.86
2022-11-15T22:50:34.230Z,88.82
2022-11-15T22:53:07.388Z,88.68
2022-11-15T22:55:42.025Z,88.68
2022-11-15T22:58:15.712Z,88.79
2022-11-15T23:00:52.274Z,88.94
2022-11-15T23:03:28.473Z,89.09
2022-11-15T23:06:07.589Z,88.95
2022-11-15T23:08:41.213Z,88.91
2022-11-15T23:11:32.769Z,88.94
2022-11-15T23:14:07.376Z,89.03
2022-11-15T23:16:40.859Z,88.96
2022-11-15T23:19:15.357Z,89.05
2022-11-15T23:33:17.299Z,88.85
2022-11-15T23:35:57.644Z,88.57
2022-11-15T23:38:30.934Z,88.36
2022-11-15T23:41:05.781Z,88.50
2022-11-15T23:43:38.889Z,88.68
2022-11-15T23:46:12.043Z,88.74
2022-11-15T23:48:46.032Z,88.64
2022-11-15T23:51:19.361Z,88.60
2022-11-15T23:53:52.548Z,88.48
2022-11-15T23:56:25.689Z,88.50
2022-11-15T23:58:59.922Z,88.52
